createdAt,value
2019-05-23T00:01:34.288Z,100.00
2019-05-23T00:04:07.728Z,100.00
2019-05-23T00:06:37.805Z,100.00
2019-05-23T00:09:06.915Z,100.00
2019-05-23T00:11:44.963Z,100.00
2019-05-23T00:14:32.707Z,100.00
2019-05-23T00:17:02.352Z,100.00
2019-05-23T00:19:32.791Z,100.00
2019-05-23T00:22:01.689Z,100.00
2019-05-23T00:24:30.908Z,100.00
2019-05-23T00:26:59.981Z,100.00
2019-05-23T00:29:29.317Z,100.00
2019-05-23T00:32:05.349Z,100.00
2019-05-23T00:34:35.320Z,100.00
2019-05-23T00:37:04.839Z,100.00
2019-05-23T00:39:35.134Z,100.00
2019-05-23T00:42:05.077Z,100.00
2019-05-23T00:44:34.327Z,100.00
2019-05-23T00:47:02.947Z,100.00
2019-05-23T00:49:32.233Z,100.00
2019-05-23T00:52:01.427Z,100.00
2019-05-23T00:54:30.458Z,100.00
2019-05-23T00:56:59.444Z,100.00
2019-05-23T00:59:28.148Z,100.00
2019-05-23T01:01:57.211Z,100.00
2019-05-23T01:04:26.564Z,100.00
2019-05-23T01:06:56.800Z,100.00
2019-05-23T01:09:27.437Z,100.00
2019-05-23T01:11:56.099Z,100.00
2019-05-23T01:14:25.203Z,100.00
2019-05-23T01:16:54.665Z,100.00
2019-05-23T01:19:24.362Z,100.00
2019-05-23T01:22:04.012Z,100.00
2019-05-23T01:24:34.215Z,100.00
2019-05-23T01:27:02.909Z,100.00
2019-05-23T01:29:37.667Z,100.00
2019-05-23T01:32:05.115Z,100.00
2019-05-23T01:34:34.310Z,100.00
2019-05-23T01:37:04.214Z,100.00
2019-05-23T01:39:33.805Z,100.00
2019-05-23T01:42:02.817Z,100.00
2019-05-23T01:44:32.258Z,100.00
2019-05-23T01:47:00.935Z,100.00
2019-05-23T01:49:30.604Z,100.00
2019-05-23T01:51:59.705Z,100.00
2019-05-23T01:54:28.782Z,100.00
2019-05-23T01:56:57.455Z,100.00
2019-05-23T01:59:26.451Z,100.00
2019-05-23T02:01:55.146Z,100.00
2019-05-23T02:04:23.779Z,100.00
2019-05-23T02:06:52.872Z,100.00
2019-05-23T02:09:22.342Z,100.00
2019-05-23T02:11:51.734Z,100.00
2019-05-23T02:14:20.341Z,100.00
2019-05-23T02:16:49.650Z,100.00
2019-05-23T02:19:19.743Z,100.00
2019-05-23T02:21:49.293Z,100.00
2019-05-23T02:24:18.760Z,100.00
2019-05-23T02:26:47.375Z,100.00
2019-05-23T02:29:16.751Z,100.00
2019-05-23T02:31:45.378Z,100.00
2019-05-23T02:34:14.564Z,100.00
2019-05-23T02:36:44.414Z,100.00
2019-05-23T02:39:23.498Z,100.00
2019-05-23T02:42:09.005Z,100.00
2019-05-23T02:44:39.187Z,100.00
2019-05-23T02:47:21.753Z,100.00
2019-05-23T02:49:51.308Z,100.00
2019-05-23T02:52:28.906Z,100.00
2019-05-23T02:54:57.972Z,100.00
2019-05-23T02:57:28.150Z,100.00
2019-05-23T02:59:59.853Z,100.00
2019-05-23T03:02:36.114Z,100.00
2019-05-23T03:05:07.335Z,100.00
2019-05-23T03:07:36.442Z,100.00
2019-05-23T03:10:09.790Z,100.00
2019-05-23T03:12:39.822Z,100.00
2019-05-23T03:15:10.963Z,100.00
2019-05-23T03:17:41.681Z,100.00
2019-05-23T03:20:11.532Z,100.00
2019-05-23T03:22:49.235Z,100.00
2019-05-23T03:25:37.098Z,100.00
2019-05-23T03:28:09.851Z,100.00
2019-05-23T03:30:40.150Z,100.00
2019-05-23T03:33:10.787Z,100.00
2019-05-23T03:35:41.143Z,100.00
2019-05-23T03:38:10.789Z,100.00
2019-05-23T03:40:40.311Z,100.00
2019-05-23T03:43:09.372Z,100.00
2019-05-23T03:45:40.358Z,100.00
2019-05-23T03:48:09.235Z,100.00
2019-05-23T03:50:39.615Z,100.00
2019-05-23T03:53:08.347Z,100.00
2019-05-23T03:55:37.053Z,100.00
2019-05-23T03:58:06.245Z,100.00
2019-05-23T04:00:37.250Z,100.00
2019-05-23T04:03:06.071Z,100.00
2019-05-23T04:05:35.152Z,100.00
2019-05-23T04:08:04.763Z,100.00
2019-05-23T04:10:33.663Z,100.00
2019-05-23T04:13:02.447Z,100.00
2019-05-23T04:15:31.091Z,100.00
2019-05-23T04:17:59.785Z,100.00
2019-05-23T04:20:28.398Z,100.00
2019-05-23T04:22:57.670Z,100.00
2019-05-23T04:25:27.077Z,100.00
2019-05-23T04:27:57.069Z,100.00
2019-05-23T04:30:25.736Z,100.00
2019-05-23T04:32:54.385Z,100.00
2019-05-23T04:35:23.057Z,100.00
2019-05-23T04:37:51.730Z,100.00
2019-05-23T04:40:20.770Z,100.00
2019-05-23T04:42:49.408Z,100.00
2019-05-23T04:45:18.073Z,100.00
2019-05-23T04:47:47.810Z,100.00
2019-05-23T04:50:17.421Z,100.00
2019-05-23T04:52:46.201Z,100.00
2019-05-23T04:55:15.629Z,100.00
2019-05-23T04:57:45.616Z,100.00
2019-05-23T05:00:20.845Z,100.00
2019-05-23T05:02:49.828Z,100.00
2019-05-23T05:05:19.212Z,100.00
2019-05-23T05:07:48.055Z,100.00
2019-05-23T05:10:19.955Z,100.00
2019-05-23T05:12:48.813Z,100.00
2019-05-23T05:15:17.625Z,100.00
2019-05-23T05:17:48.377Z,100.00
2019-05-23T05:20:17.503Z,100.00
2019-05-23T05:22:46.319Z,100.00
2019-05-23T05:25:15.977Z,100.00
2019-05-23T05:27:45.034Z,100.00
2019-05-23T05:30:13.902Z,100.00
2019-05-23T05:32:45.216Z,100.00
2019-05-23T05:35:14.465Z,100.00
2019-05-23T05:37:43.630Z,100.00
2019-05-23T05:40:13.211Z,100.00
2019-05-23T05:42:41.992Z,100.00
2019-05-23T05:45:11.690Z,100.00
2019-05-23T05:47:40.746Z,100.00
2019-05-23T05:50:11.041Z,100.00
2019-05-23T05:52:40.363Z,100.00
2019-05-23T05:55:09.849Z,100.00
2019-05-23T05:57:38.479Z,100.00
2019-05-23T06:00:12.963Z,100.00
2019-05-23T06:02:42.188Z,100.00
2019-05-23T06:05:12.543Z,100.00
2019-05-23T06:07:45.241Z,100.00
2019-05-23T06:10:15.867Z,100.00
2019-05-23T06:12:44.562Z,100.00
2019-05-23T06:15:13.296Z,100.00
2019-05-23T06:17:42.946Z,100.00
2019-05-23T06:20:11.667Z,100.00
2019-05-23T06:22:40.971Z,100.00
2019-05-23T06:25:10.399Z,100.00
2019-05-23T06:27:40.617Z,100.00
2019-05-23T06:30:12.582Z,100.00
2019-05-23T06:32:41.379Z,100.00
2019-05-23T06:35:10.456Z,100.00
2019-05-23T06:37:40.007Z,100.00
2019-05-23T06:40:11.939Z,100.00
2019-05-23T06:42:40.566Z,100.00
2019-05-23T06:45:11.434Z,100.00
2019-05-23T06:47:40.646Z,100.00
2019-05-23T06:50:15.992Z,100.00
2019-05-23T06:52:44.834Z,100.00
2019-05-23T06:55:13.845Z,100.00
2019-05-23T06:57:42.485Z,100.00
2019-05-23T07:00:13.477Z,100.00
2019-05-23T07:02:42.817Z,100.00
2019-05-23T07:05:11.717Z,100.00
2019-05-23T07:07:41.488Z,100.00
2019-05-23T07:10:10.701Z,100.00
2019-05-23T07:12:39.314Z,100.00
2019-05-23T07:15:10.164Z,100.00
2019-05-23T07:17:39.323Z,100.00
2019-05-23T07:20:09.136Z,100.00
2019-05-23T07:22:37.888Z,100.00
2019-05-23T07:25:09.945Z,100.00
2019-05-23T07:27:38.823Z,100.00
2019-05-23T07:30:14.182Z,100.00
2019-05-23T07:32:42.838Z,100.00
2019-05-23T07:35:12.989Z,100.00
2019-05-23T07:37:41.690Z,100.00
2019-05-23T07:40:10.779Z,100.00
2019-05-23T07:42:39.908Z,100.00
2019-05-23T07:45:10.300Z,100.00
2019-05-23T07:47:40.238Z,100.00
2019-05-23T07:50:09.428Z,100.00
2019-05-23T07:52:40.330Z,100.00
2019-05-23T07:55:16.802Z,100.00
2019-05-23T07:57:45.631Z,100.00
2019-05-23T08:00:25.312Z,100.00
2019-05-23T08:02:54.624Z,100.00
2019-05-23T08:05:23.933Z,100.00
2019-05-23T08:07:53.509Z,100.00
2019-05-23T08:10:32.991Z,100.00
2019-05-23T08:12:53.782Z,100.00
2019-05-23T08:15:22.500Z,100.00
2019-05-23T08:17:52.559Z,100.00
2019-05-23T08:20:21.688Z,100.00
2019-05-23T08:22:50.387Z,100.00
2019-05-23T08:25:19.110Z,100.00
2019-05-23T08:27:48.362Z,100.00
2019-05-23T08:30:19.327Z,100.00
2019-05-23T08:32:48.604Z,100.00
2019-05-23T08:35:18.406Z,100.00
2019-05-23T08:37:47.346Z,100.00
2019-05-23T08:40:18.139Z,100.00
2019-05-23T08:42:47.875Z,100.00
2019-05-23T08:45:17.247Z,100.00
2019-05-23T08:47:45.945Z,100.00
2019-05-23T08:50:15.268Z,100.00
2019-05-23T08:52:43.975Z,100.00
2019-05-23T08:55:21.944Z,100.00
2019-05-23T08:57:52.334Z,100.00
2019-05-23T09:00:22.903Z,99.44
2019-05-23T09:02:53.545Z,99.41
2019-05-23T09:05:23.797Z,98.08
2019-05-23T09:07:52.522Z,97.65
2019-05-23T09:10:21.188Z,99.42
2019-05-23T09:12:49.872Z,100.00
2019-05-23T09:15:18.815Z,97.82
2019-05-23T09:17:53.877Z,94.74
2019-05-23T09:20:19.707Z,96.40
2019-05-23T09:22:48.332Z,100.00
2019-05-23T09:25:17.362Z,100.00
2019-05-23T09:27:46.643Z,100.00
2019-05-23T09:30:16.634Z,98.63
2019-05-23T09:32:45.659Z,100.00
2019-05-23T09:35:21.065Z,99.20
2019-05-23T09:37:46.693Z,99.55
2019-05-23T09:40:15.458Z,98.79
2019-05-23T09:42:44.089Z,95.66
2019-05-23T09:45:12.770Z,98.33
2019-05-23T09:47:41.736Z,98.20
2019-05-23T09:50:14.034Z,96.09
2019-05-23T09:52:42.706Z,95.60
2019-05-23T09:55:11.522Z,92.54
2019-05-23T09:57:40.199Z,94.11
2019-05-23T10:00:11.142Z,93.45
2019-05-23T10:02:39.851Z,92.40
2019-05-23T10:05:11.900Z,92.48
2019-05-23T10:07:42.097Z,89.70
2019-05-23T10:10:11.675Z,87.79
2019-05-23T10:12:40.313Z,88.62
2019-05-23T10:15:12.488Z,85.92
2019-05-23T10:17:41.187Z,90.21
2019-05-23T10:20:09.881Z,89.98
2019-05-23T10:22:38.565Z,87.78
2019-05-23T10:25:07.563Z,89.40
2019-05-23T10:27:36.252Z,84.82
2019-05-23T10:30:08.788Z,84.61
2019-05-23T10:32:37.418Z,86.69
2019-05-23T10:35:08.128Z,81.46
2019-05-23T10:37:37.168Z,85.26
2019-05-23T10:40:05.854Z,84.44
2019-05-23T10:42:35.021Z,86.84
2019-05-23T10:45:04.506Z,80.85
2019-05-23T10:47:33.635Z,83.12
2019-05-23T10:50:07.709Z,76.30
2019-05-23T10:52:33.562Z,78.93
2019-05-23T10:55:02.273Z,82.67
2019-05-23T10:57:31.373Z,75.86
2019-05-23T11:00:02.041Z,81.68
2019-05-23T11:02:31.012Z,79.23
2019-05-23T11:05:11.593Z,69.68
2019-05-23T11:07:30.716Z,68.26
2019-05-23T11:09:59.336Z,68.88
2019-05-23T11:12:28.024Z,73.69
2019-05-23T11:14:56.650Z,64.66
2019-05-23T11:17:25.318Z,72.22
2019-05-23T11:19:53.928Z,66.51
2019-05-23T11:22:22.608Z,67.53
2019-05-23T11:24:51.232Z,58.39
2019-05-23T11:27:20.726Z,60.60
2019-05-23T11:29:49.405Z,72.52
2019-05-23T11:32:20.303Z,62.78
2019-05-23T11:34:48.425Z,66.82
2019-05-23T11:37:17.261Z,64.71
2019-05-23T11:39:49.518Z,63.14
2019-05-23T11:42:16.288Z,64.97
2019-05-23T11:44:45.087Z,59.94
2019-05-23T11:47:14.319Z,53.30
2019-05-23T11:49:44.308Z,55.40
2019-05-23T11:52:15.003Z,52.47
2019-05-23T11:54:43.624Z,48.20
2019-05-23T11:57:16.040Z,59.52
2019-05-23T11:59:44.965Z,61.74
2019-05-23T12:02:30.430Z,62.72
2019-05-23T12:05:00.681Z,65.13
2019-05-23T12:07:30.971Z,66.19
2019-05-23T12:09:59.679Z,61.80
2019-05-23T12:12:30.169Z,67.75
2019-05-23T12:14:58.845Z,65.27
2019-05-23T12:17:29.264Z,67.37
2019-05-23T12:19:58.143Z,65.90
2019-05-23T12:22:28.567Z,64.12
2019-05-23T12:24:57.665Z,65.04
2019-05-23T12:27:26.395Z,58.04
2019-05-23T12:29:55.071Z,64.96
2019-05-23T12:32:24.123Z,61.90
2019-05-23T12:35:09.258Z,66.00
2019-05-23T12:37:23.458Z,58.99
2019-05-23T12:39:52.133Z,64.80
2019-05-23T12:42:21.152Z,60.65
2019-05-23T12:44:49.857Z,59.73
2019-05-23T12:47:20.053Z,60.55
2019-05-23T12:49:50.444Z,54.94
2019-05-23T12:52:19.100Z,57.16
2019-05-23T12:54:47.795Z,58.03
2019-05-23T12:57:16.754Z,57.50
2019-05-23T12:59:46.985Z,54.75
2019-05-23T13:02:17.201Z,41.95
2019-05-23T13:04:45.984Z,45.49
2019-05-23T13:07:15.712Z,45.38
2019-05-23T13:09:44.582Z,44.12
2019-05-23T13:12:16.421Z,43.97
2019-05-23T13:14:44.438Z,41.00
2019-05-23T13:17:13.102Z,47.17
2019-05-23T13:19:41.987Z,49.90
2019-05-23T13:22:12.266Z,48.88
2019-05-23T13:24:51.962Z,51.51
2019-05-23T13:27:11.310Z,54.63
2019-05-23T13:29:39.944Z,54.12
2019-05-23T13:32:08.642Z,55.76
2019-05-23T13:34:37.865Z,53.95
2019-05-23T13:37:08.309Z,52.56
2019-05-23T13:39:37.322Z,50.84
2019-05-23T13:42:05.995Z,53.83
2019-05-23T13:44:36.474Z,56.46
2019-05-23T13:47:05.308Z,53.48
2019-05-23T13:49:34.490Z,47.59
2019-05-23T13:52:03.220Z,47.11
2019-05-23T13:54:35.885Z,48.87
2019-05-23T13:57:03.508Z,47.17
2019-05-23T13:59:32.333Z,47.25
2019-05-23T14:02:01.280Z,50.14
2019-05-23T14:04:30.103Z,49.08
2019-05-23T14:06:58.750Z,48.32
2019-05-23T14:09:27.702Z,46.38
2019-05-23T14:12:20.134Z,48.97
2019-05-23T14:14:27.293Z,49.50
2019-05-23T14:17:15.832Z,48.82
2019-05-23T14:19:44.748Z,47.04
2019-05-23T14:22:13.536Z,47.71
2019-05-23T14:24:42.184Z,50.11
2019-05-23T14:27:15.561Z,39.91
2019-05-23T14:29:44.280Z,47.67
2019-05-23T14:32:23.359Z,45.46
2019-05-23T14:34:55.649Z,44.01
2019-05-23T14:37:31.816Z,45.89
2019-05-23T14:40:02.247Z,47.76
2019-05-23T14:42:32.516Z,43.42
2019-05-23T14:45:01.134Z,43.22
2019-05-23T14:47:43.709Z,46.43
2019-05-23T14:50:30.206Z,40.23
2019-05-23T14:53:00.488Z,48.27
2019-05-23T14:55:29.108Z,44.93
2019-05-23T14:57:57.945Z,46.14
2019-05-23T15:00:28.349Z,45.46
2019-05-23T15:02:57.048Z,44.47
2019-05-23T15:05:25.726Z,46.55
2019-05-23T15:07:54.361Z,45.10
2019-05-23T15:10:23.147Z,41.32
2019-05-23T15:12:51.895Z,42.90
2019-05-23T15:15:20.580Z,42.60
2019-05-23T15:17:49.206Z,41.10
2019-05-23T15:20:17.915Z,42.08
2019-05-23T15:22:46.572Z,46.64
2019-05-23T15:25:15.866Z,44.32
2019-05-23T15:27:44.571Z,48.55
2019-05-23T15:30:13.663Z,45.71
2019-05-23T15:32:42.387Z,43.40
2019-05-23T15:35:11.142Z,42.77
2019-05-23T15:37:39.929Z,41.03
2019-05-23T15:40:08.727Z,39.79
2019-05-23T15:42:37.411Z,39.79
2019-05-23T15:45:07.886Z,44.05
2019-05-23T15:47:36.672Z,47.03
2019-05-23T15:50:11.291Z,55.16
2019-05-23T15:52:42.251Z,56.08
2019-05-23T15:55:13.008Z,44.66
2019-05-23T15:57:43.285Z,44.90
2019-05-23T16:00:28.676Z,47.28
2019-05-23T16:03:01.560Z,44.16
2019-05-23T16:05:31.341Z,44.89
2019-05-23T16:08:00.004Z,46.06
2019-05-23T16:10:29.615Z,48.35
2019-05-23T16:12:59.042Z,48.20
2019-05-23T16:15:28.067Z,45.56
2019-05-23T16:17:57.505Z,47.93
2019-05-23T16:20:26.593Z,45.49
2019-05-23T16:22:55.336Z,45.98
2019-05-23T16:25:24.115Z,47.85
2019-05-23T16:27:53.825Z,49.35
2019-05-23T16:30:24.023Z,54.65
2019-05-23T16:32:52.752Z,59.17
2019-05-23T16:35:21.554Z,62.48
2019-05-23T16:37:50.229Z,61.95
2019-05-23T16:40:20.708Z,61.02
2019-05-23T16:42:49.454Z,54.36
2019-05-23T16:45:18.356Z,52.68
2019-05-23T16:47:47.113Z,54.78
2019-05-23T16:50:16.214Z,56.77
2019-05-23T16:52:44.880Z,59.52
2019-05-23T16:55:17.298Z,60.85
2019-05-23T16:57:50.362Z,60.16
2019-05-23T17:00:21.750Z,59.16
2019-05-23T17:02:58.531Z,57.94
2019-05-23T17:05:31.639Z,63.23
2019-05-23T17:08:04.401Z,67.20
2019-05-23T17:10:39.938Z,73.14
2019-05-23T17:13:18.949Z,82.34
2019-05-23T17:15:51.909Z,74.53
2019-05-23T17:18:25.063Z,78.08
2019-05-23T17:20:55.454Z,76.28
2019-05-23T17:23:52.021Z,78.39
2019-05-23T17:26:26.660Z,76.70
2019-05-23T17:28:56.497Z,79.63
2019-05-23T17:31:39.062Z,88.68
2019-05-23T17:34:09.536Z,90.23
2019-05-23T17:36:38.259Z,95.83
2019-05-23T17:39:09.616Z,100.00
2019-05-23T17:41:39.875Z,100.00
2019-05-23T17:44:08.617Z,92.52
2019-05-23T17:46:37.413Z,88.83
2019-05-23T17:49:06.691Z,86.10
2019-05-23T17:51:35.491Z,88.69
2019-05-23T17:54:04.511Z,90.37
2019-05-23T17:56:33.171Z,93.82
2019-05-23T17:59:01.938Z,99.34
2019-05-23T18:01:32.558Z,100.00
2019-05-23T18:04:01.460Z,100.00
2019-05-23T18:06:30.185Z,100.00
2019-05-23T18:08:59.299Z,100.00
2019-05-23T18:11:30.220Z,100.00
2019-05-23T18:13:59.743Z,100.00
2019-05-23T18:16:28.784Z,100.00
2019-05-23T18:18:57.419Z,100.00
2019-05-23T18:21:26.440Z,100.00
2019-05-23T18:23:55.969Z,100.00
2019-05-23T18:26:29.704Z,100.00
2019-05-23T18:28:58.397Z,100.00
2019-05-23T18:31:28.658Z,100.00
2019-05-23T18:33:58.103Z,100.00
2019-05-23T18:36:27.584Z,100.00
2019-05-23T18:38:56.452Z,100.00
2019-05-23T18:41:25.200Z,100.00
2019-05-23T18:43:54.906Z,100.00
2019-05-23T18:46:28.625Z,100.00
2019-05-23T18:48:57.404Z,100.00
2019-05-23T18:51:26.297Z,100.00
2019-05-23T18:53:55.079Z,100.00
2019-05-23T18:56:24.137Z,100.00
2019-05-23T18:58:54.378Z,100.00
2019-05-23T19:01:24.682Z,100.00
2019-05-23T19:03:53.384Z,100.00
2019-05-23T19:06:22.401Z,100.00
2019-05-23T19:08:52.114Z,100.00
2019-05-23T19:11:22.044Z,100.00
2019-05-23T19:13:53.746Z,100.00
2019-05-23T19:16:22.608Z,100.00
2019-05-23T19:18:51.261Z,100.00
2019-05-23T19:21:20.859Z,100.00
2019-05-23T19:23:49.485Z,100.00
2019-05-23T19:26:18.454Z,100.00
2019-05-23T19:28:47.425Z,100.00
2019-05-23T19:31:16.403Z,100.00
2019-05-23T19:33:46.068Z,100.00
2019-05-23T19:36:15.351Z,100.00
2019-05-23T19:38:44.135Z,100.00
2019-05-23T19:41:14.045Z,100.00
2019-05-23T19:43:43.131Z,100.00
2019-05-23T19:46:12.426Z,100.00
2019-05-23T19:48:42.993Z,100.00
2019-05-23T19:51:11.936Z,100.00
2019-05-23T19:53:41.206Z,100.00
2019-05-23T19:56:10.394Z,100.00
2019-05-23T19:58:39.519Z,100.00
2019-05-23T20:01:08.368Z,100.00
2019-05-23T20:03:37.265Z,100.00
2019-05-23T20:06:08.587Z,100.00
2019-05-23T20:08:37.333Z,100.00
2019-05-23T20:11:06.112Z,100.00
2019-05-23T20:13:34.724Z,100.00
2019-05-23T20:16:03.475Z,100.00
2019-05-23T20:18:32.595Z,100.00
2019-05-23T20:21:01.440Z,100.00
2019-05-23T20:23:30.115Z,100.00
2019-05-23T20:25:58.756Z,100.00
2019-05-23T20:28:27.511Z,100.00
2019-05-23T20:30:56.323Z,100.00
2019-05-23T20:33:25.371Z,100.00
2019-05-23T20:35:53.973Z,100.00
2019-05-23T20:38:26.234Z,100.00
2019-05-23T20:40:55.091Z,100.00
2019-05-23T20:43:23.764Z,100.00
2019-05-23T20:45:52.547Z,100.00
2019-05-23T20:48:21.791Z,100.00
2019-05-23T20:50:50.452Z,100.00
2019-05-23T20:53:19.061Z,100.00
2019-05-23T20:55:47.756Z,100.00
2019-05-23T20:58:16.766Z,100.00
2019-05-23T21:00:49.832Z,100.00
2019-05-23T21:03:18.982Z,100.00
2019-05-23T21:05:47.641Z,100.00
2019-05-23T21:08:16.331Z,100.00
2019-05-23T21:10:48.950Z,100.00
2019-05-23T21:13:18.132Z,100.00
2019-05-23T21:15:47.237Z,100.00
2019-05-23T21:18:16.015Z,100.00
2019-05-23T21:20:44.654Z,100.00
2019-05-23T21:23:13.535Z,100.00
2019-05-23T21:25:43.868Z,100.00
2019-05-23T21:28:12.494Z,100.00
2019-05-23T21:30:41.245Z,100.00
2019-05-23T21:33:10.482Z,100.00
2019-05-23T21:35:39.107Z,100.00
2019-05-23T21:38:07.807Z,100.00
2019-05-23T21:40:39.568Z,100.00
2019-05-23T21:43:08.322Z,100.00
2019-05-23T21:45:36.936Z,100.00
2019-05-23T21:48:05.625Z,100.00
2019-05-23T21:50:34.314Z,100.00
2019-05-23T21:53:03.426Z,100.00
2019-05-23T21:55:42.614Z,100.00
2019-05-23T21:58:13.536Z,100.00
2019-05-23T22:01:07.830Z,100.00
2019-05-23T22:03:39.571Z,100.00
2019-05-23T22:06:12.670Z,100.00
2019-05-23T22:08:41.895Z,100.00
2019-05-23T22:11:11.416Z,100.00
2019-05-23T22:13:40.142Z,100.00
2019-05-23T22:16:09.324Z,100.00
2019-05-23T22:18:38.191Z,100.00
2019-05-23T22:21:06.817Z,100.00
2019-05-23T22:23:35.906Z,100.00
2019-05-23T22:26:04.595Z,100.00
2019-05-23T22:28:33.318Z,100.00
2019-05-23T22:31:01.911Z,100.00
2019-05-23T22:33:32.253Z,100.00
2019-05-23T22:36:01.205Z,100.00
2019-05-23T22:38:29.890Z,100.00
2019-05-23T22:40:58.504Z,100.00
2019-05-23T22:43:27.698Z,100.00
2019-05-23T22:45:56.481Z,100.00
2019-05-23T22:48:25.177Z,100.00
2019-05-23T22:50:53.808Z,100.00
2019-05-23T22:53:22.506Z,100.00
2019-05-23T22:55:51.149Z,100.00
2019-05-23T22:58:19.832Z,100.00
2019-05-23T23:00:49.342Z,100.00
2019-05-23T23:03:18.049Z,100.00
2019-05-23T23:05:46.669Z,100.00
2019-05-23T23:08:15.633Z,100.00
2019-05-23T23:10:44.474Z,100.00
2019-05-23T23:13:13.424Z,100.00
2019-05-23T23:15:42.096Z,100.00
2019-05-23T23:18:11.015Z,100.00
2019-05-23T23:20:39.693Z,100.00
2019-05-23T23:23:08.299Z,100.00
2019-05-23T23:25:37.185Z,100.00
2019-05-23T23:28:06.151Z,100.00
2019-05-23T23:30:36.401Z,100.00
2019-05-23T23:33:05.072Z,100.00
2019-05-23T23:35:34.835Z,100.00
2019-05-23T23:38:03.581Z,100.00
2019-05-23T23:40:32.687Z,100.00
2019-05-23T23:43:01.290Z,100.00
2019-05-23T23:45:50.204Z,100.00
2019-05-23T23:48:36.560Z,100.00
2019-05-23T23:51:23.217Z,100.00
2019-05-23T23:54:09.815Z,100.00
2019-05-23T23:56:56.194Z,100.00
2019-05-23T23:59:24.046Z,100.00
